createdAt,value
2023-04-29T00:00:38.365Z,19.30
2023-04-29T00:03:08.937Z,21.50
2023-04-29T00:05:39.753Z,22.00
2023-04-29T00:08:13.043Z,21.50
2023-04-29T00:10:44.213Z,20.17
2023-04-29T00:13:14.673Z,21.10
2023-04-29T00:15:45.188Z,18.88
2023-04-29T00:18:15.663Z,20.52
2023-04-29T00:20:46.240Z,19.33
2023-04-29T00:23:19.174Z,18.67
2023-04-29T00:25:49.498Z,22.25
2023-04-29T00:28:20.023Z,19.65
2023-04-29T00:30:50.358Z,17.02
2023-04-29T00:33:20.701Z,17.73
2023-04-29T00:35:51.043Z,19.98
2023-04-29T00:38:24.390Z,17.33
2023-04-29T00:40:54.987Z,20.50
2023-04-29T00:43:25.341Z,20.58
2023-04-29T00:45:55.696Z,22.63
2023-04-29T00:48:26.064Z,19.35
2023-04-29T00:50:56.566Z,20.00
2023-04-29T00:53:29.572Z,24.27
2023-04-29T00:56:00.973Z,18.27
2023-04-29T00:58:33.865Z,18.83
2023-04-29T01:01:04.703Z,22.42
2023-04-29T01:03:35.466Z,15.52
2023-04-29T01:06:12.055Z,18.92
2023-04-29T01:08:48.395Z,15.63
2023-04-29T01:11:20.494Z,21.98
2023-04-29T01:13:54.298Z,14.00
2023-04-29T01:16:27.196Z,18.23
2023-04-29T01:18:58.818Z,17.98
2023-04-29T01:21:31.979Z,16.25
2023-04-29T01:24:04.927Z,17.45
2023-04-29T01:26:36.298Z,17.65
2023-04-29T01:29:13.480Z,14.68
2023-04-29T01:31:48.090Z,15.65
2023-04-29T01:34:21.037Z,17.63
2023-04-29T01:36:57.497Z,14.15
2023-04-29T01:39:35.468Z,18.70
2023-04-29T01:42:08.258Z,18.95
2023-04-29T01:44:38.902Z,12.93
2023-04-29T01:47:09.857Z,18.13
2023-04-29T01:49:40.501Z,15.60
2023-04-29T01:52:10.843Z,18.27
2023-04-29T01:54:43.796Z,19.23
2023-04-29T01:57:14.149Z,21.20
2023-04-29T01:59:44.635Z,26.10
2023-04-29T02:02:15.529Z,20.33
2023-04-29T02:04:45.959Z,26.17
2023-04-29T02:07:16.569Z,25.48
2023-04-29T02:09:49.488Z,20.23
2023-04-29T02:12:19.899Z,24.55
2023-04-29T02:14:50.931Z,21.15
2023-04-29T02:19:51.673Z,23.13
2023-04-29T02:22:22.246Z,26.65
2023-04-29T02:24:55.178Z,20.75
2023-04-29T02:27:26.601Z,22.90
2023-04-29T02:29:56.894Z,22.15
2023-04-29T02:32:27.266Z,24.98
2023-04-29T02:34:58.252Z,20.23
2023-04-29T02:37:29.253Z,20.88
2023-04-29T02:40:02.432Z,22.83
2023-04-29T02:42:32.804Z,24.20
2023-04-29T02:45:04.185Z,21.83
2023-04-29T02:47:34.489Z,20.73
2023-04-29T02:50:05.036Z,25.67
2023-04-29T02:52:35.368Z,22.10
2023-04-29T02:55:08.665Z,18.98
2023-04-29T02:57:39.282Z,19.08
2023-04-29T03:00:10.472Z,19.40
2023-04-29T03:02:40.998Z,21.48
2023-04-29T03:05:11.942Z,19.85
2023-04-29T03:07:42.344Z,19.23
2023-04-29T03:10:15.945Z,17.25
2023-04-29T03:12:46.256Z,20.25
2023-04-29T03:15:17.530Z,19.13
2023-04-29T03:17:48.562Z,19.65
2023-04-29T03:22:48.944Z,17.80
2023-04-29T03:25:22.254Z,19.35
2023-04-29T03:27:52.609Z,17.45
2023-04-29T03:30:22.974Z,15.95
2023-04-29T03:32:53.292Z,14.48
2023-04-29T03:35:23.829Z,19.02
2023-04-29T03:37:54.154Z,16.27
2023-04-29T03:40:27.286Z,17.45
2023-04-29T03:42:57.587Z,16.95
2023-04-29T03:45:27.949Z,19.52
2023-04-29T03:47:58.282Z,14.23
2023-04-29T03:50:29.147Z,15.88
2023-04-29T03:52:59.459Z,17.02
2023-04-29T03:55:32.637Z,15.80
2023-04-29T03:58:02.980Z,16.02
2023-04-29T04:00:34.176Z,16.08
2023-04-29T04:03:05.747Z,14.57
2023-04-29T04:05:36.446Z,16.75
2023-04-29T04:08:06.963Z,11.77
2023-04-29T04:10:40.620Z,14.23
2023-04-29T04:13:10.891Z,16.05
2023-04-29T04:15:42.720Z,9.10
2023-04-29T04:18:13.037Z,10.75
2023-04-29T04:20:43.624Z,15.05
2023-04-29T04:23:13.921Z,10.70
2023-04-29T04:25:52.808Z,9.00
2023-04-29T04:28:23.160Z,12.25
2023-04-29T04:30:53.509Z,9.98
2023-04-29T04:33:23.816Z,11.82
2023-04-29T04:35:54.165Z,11.52
2023-04-29T04:38:25.769Z,11.90
2023-04-29T04:40:58.878Z,10.45
2023-04-29T04:43:29.177Z,11.90
2023-04-29T04:45:59.682Z,11.57
2023-04-29T04:48:30.002Z,11.30
2023-04-29T04:51:00.336Z,8.38
2023-04-29T04:53:30.639Z,14.70
2023-04-29T04:56:07.493Z,8.50
2023-04-29T04:58:37.874Z,11.38
2023-04-29T05:01:08.359Z,14.43
2023-04-29T05:03:38.954Z,12.57
2023-04-29T05:06:09.522Z,13.68
2023-04-29T05:08:39.898Z,11.50
2023-04-29T05:11:19.196Z,13.43
2023-04-29T05:13:49.515Z,12.45
2023-04-29T05:16:20.499Z,10.52
2023-04-29T05:21:23.595Z,10.10
2023-04-29T05:23:53.877Z,9.43
2023-04-29T05:26:26.822Z,10.88
2023-04-29T05:28:57.158Z,13.55
2023-04-29T05:31:28.797Z,13.95
2023-04-29T05:33:59.182Z,10.35
2023-04-29T05:36:30.356Z,11.63
2023-04-29T05:39:00.722Z,12.57
2023-04-29T05:41:33.702Z,12.93
2023-04-29T05:44:04.026Z,10.80
2023-04-29T05:46:40.424Z,13.32
2023-04-29T05:49:10.846Z,11.68
2023-04-29T05:51:43.584Z,12.35
2023-04-29T05:54:13.913Z,11.80
2023-04-29T05:56:47.072Z,13.43
2023-04-29T05:59:17.437Z,12.13
2023-04-29T06:01:47.781Z,13.35
2023-04-29T06:04:18.414Z,15.73
2023-04-29T06:06:49.008Z,12.40
2023-04-29T06:09:27.181Z,10.57
2023-04-29T06:12:01.083Z,13.13
2023-04-29T06:14:31.416Z,14.43
2023-04-29T06:17:02.341Z,12.88
2023-04-29T06:19:33.838Z,13.93
2023-04-29T06:22:04.213Z,10.68
2023-04-29T06:24:34.550Z,11.93
2023-04-29T06:27:07.861Z,10.88
2023-04-29T06:29:38.139Z,11.40
2023-04-29T06:32:09.040Z,12.43
2023-04-29T06:37:09.966Z,12.25
2023-04-29T06:39:40.293Z,9.13
2023-04-29T06:42:13.667Z,13.02
2023-04-29T06:44:44.134Z,9.95
2023-04-29T06:47:15.321Z,11.27
2023-04-29T06:49:46.438Z,9.70
2023-04-29T06:54:46.996Z,10.45
2023-04-29T06:57:21.179Z,13.25
2023-04-29T06:59:51.726Z,10.20
2023-04-29T07:02:22.427Z,10.80
2023-04-29T07:04:52.943Z,13.88
2023-04-29T07:07:24.790Z,11.13
2023-04-29T07:09:55.190Z,11.45
2023-04-29T07:12:28.720Z,11.95
2023-04-29T07:15:00.007Z,11.00
2023-04-29T07:17:33.224Z,8.77
2023-04-29T07:20:04.313Z,11.90
2023-04-29T07:25:04.753Z,8.75
2023-04-29T07:27:38.925Z,15.52
2023-04-29T07:30:10.428Z,11.23
2023-04-29T07:32:41.256Z,11.15
2023-04-29T07:35:12.000Z,10.13
2023-04-29T07:37:44.111Z,11.68
2023-04-29T07:40:14.823Z,14.07
2023-04-29T07:42:47.893Z,10.35
2023-04-29T07:45:18.242Z,6.53
2023-04-29T07:47:48.702Z,10.00
2023-04-29T07:50:19.188Z,8.55
2023-04-29T07:52:49.551Z,9.02
2023-04-29T07:55:19.986Z,9.90
2023-04-29T07:57:52.920Z,9.55
2023-04-29T08:00:23.446Z,7.05
2023-04-29T08:02:55.424Z,8.88
2023-04-29T08:05:26.468Z,7.32
2023-04-29T08:07:57.174Z,6.60
2023-04-29T08:10:27.460Z,6.20
2023-04-29T08:13:00.438Z,6.28
2023-04-29T08:15:30.914Z,7.68
2023-04-29T08:18:01.317Z,12.02
2023-04-29T08:20:31.743Z,6.78
2023-04-29T08:23:02.781Z,7.05
2023-04-29T08:25:33.537Z,7.15
2023-04-29T08:28:06.599Z,8.13
2023-04-29T08:30:36.870Z,8.25
2023-04-29T08:33:07.510Z,7.55
2023-04-29T08:35:38.971Z,7.15
2023-04-29T08:38:09.457Z,9.85
2023-04-29T08:40:40.164Z,6.70
2023-04-29T08:43:13.860Z,6.03
2023-04-29T08:45:44.892Z,8.27
2023-04-29T08:48:15.558Z,8.18
2023-04-29T08:50:46.394Z,7.68
2023-04-29T08:53:17.650Z,7.05
2023-04-29T08:55:48.958Z,7.30
2023-04-29T08:58:22.161Z,8.18
2023-04-29T09:00:53.032Z,7.20
2023-04-29T09:03:28.854Z,8.57
2023-04-29T09:06:00.001Z,5.82
2023-04-29T09:08:30.623Z,7.32
2023-04-29T09:11:01.759Z,6.00
2023-04-29T09:13:35.049Z,9.02
2023-04-29T09:16:06.264Z,7.60
2023-04-29T09:18:46.720Z,6.53
2023-04-29T09:21:19.666Z,5.65
2023-04-29T09:23:53.312Z,7.95
2023-04-29T09:26:24.350Z,7.47
2023-04-29T09:29:11.501Z,6.43
2023-04-29T09:31:42.364Z,5.90
2023-04-29T09:34:13.530Z,6.18
2023-04-29T09:36:48.120Z,5.57
2023-04-29T09:39:19.612Z,5.15
2023-04-29T09:42:03.384Z,7.40
2023-04-29T09:44:38.628Z,6.72
2023-04-29T09:47:09.760Z,6.45
2023-04-29T09:49:41.391Z,6.00
2023-04-29T09:52:13.189Z,6.18
2023-04-29T09:54:44.308Z,6.07
2023-04-29T09:57:16.035Z,5.57
2023-04-29T09:59:49.087Z,6.03
2023-04-29T10:02:20.950Z,5.53
2023-04-29T10:04:52.306Z,6.00
2023-04-29T10:07:23.355Z,7.68
2023-04-29T10:09:53.691Z,4.63
2023-04-29T10:12:24.640Z,5.07
2023-04-29T10:15:00.384Z,6.38
2023-04-29T10:17:36.721Z,6.65
2023-04-29T10:20:09.293Z,4.90
2023-04-29T10:22:44.190Z,6.05
2023-04-29T10:25:14.948Z,4.65
2023-04-29T10:30:19.558Z,4.00
2023-04-29T10:32:52.076Z,5.13
2023-04-29T10:35:26.026Z,4.80
2023-04-29T10:37:57.285Z,3.95
2023-04-29T10:40:31.591Z,4.53
2023-04-29T10:43:02.065Z,4.72
2023-04-29T10:45:36.623Z,6.22
2023-04-29T10:48:19.128Z,6.05
2023-04-29T10:51:04.770Z,9.95
2023-04-29T10:53:35.871Z,5.57
2023-04-29T10:56:11.645Z,4.45
2023-04-29T10:58:46.293Z,4.65
2023-04-29T11:01:20.555Z,4.72
2023-04-29T11:03:55.332Z,7.38
2023-04-29T11:06:27.009Z,4.93
2023-04-29T11:09:04.644Z,5.72
2023-04-29T11:12:03.455Z,5.55
2023-04-29T11:14:36.729Z,5.57
2023-04-29T11:17:12.244Z,5.28
2023-04-29T11:19:45.339Z,4.50
2023-04-29T11:22:30.522Z,4.80
2023-04-29T11:25:02.696Z,5.53
2023-04-29T11:27:34.436Z,6.78
2023-04-29T11:30:05.565Z,5.40
2023-04-29T11:32:40.714Z,4.80
2023-04-29T11:35:12.191Z,4.00
2023-04-29T11:37:42.898Z,5.93
2023-04-29T11:42:48.385Z,4.20
2023-04-29T11:45:20.770Z,5.93
2023-04-29T11:47:55.808Z,4.30
2023-04-29T11:50:26.741Z,3.28
2023-04-29T11:52:57.230Z,4.65
2023-04-29T11:55:28.490Z,3.80
2023-04-29T11:57:58.902Z,3.22
2023-04-29T12:00:29.265Z,2.70
2023-04-29T12:03:02.479Z,3.78
2023-04-29T12:05:33.065Z,4.35
2023-04-29T12:08:03.516Z,5.47
2023-04-29T12:10:33.973Z,4.72
2023-04-29T12:13:04.652Z,3.63
2023-04-29T12:15:36.059Z,4.68
2023-04-29T12:18:10.151Z,3.80
2023-04-29T12:20:40.800Z,4.05
2023-04-29T12:23:18.538Z,5.05
2023-04-29T12:25:53.286Z,3.40
2023-04-29T12:28:24.080Z,5.28
2023-04-29T12:33:28.378Z,3.53
2023-04-29T12:35:59.772Z,3.08
2023-04-29T12:38:30.926Z,3.85
2023-04-29T12:41:03.026Z,3.67
2023-04-29T12:43:33.914Z,3.70
2023-04-29T12:46:04.912Z,2.83
2023-04-29T12:48:39.116Z,4.50
2023-04-29T12:51:10.172Z,3.67
2023-04-29T12:53:40.535Z,3.83
2023-04-29T12:56:12.020Z,3.50
2023-04-29T12:58:42.669Z,4.72
2023-04-29T13:01:16.608Z,3.60
2023-04-29T13:03:52.032Z,4.70
2023-04-29T13:06:23.036Z,3.47
2023-04-29T13:08:54.156Z,4.25
2023-04-29T13:11:24.700Z,3.47
2023-04-29T13:13:55.072Z,4.53
2023-04-29T13:16:25.579Z,4.15
2023-04-29T13:19:05.217Z,4.95
2023-04-29T13:21:43.163Z,6.47
2023-04-29T13:24:13.492Z,4.65
2023-04-29T13:26:43.807Z,4.63
2023-04-29T13:29:14.156Z,3.85
2023-04-29T13:31:44.541Z,5.07
2023-04-29T13:34:17.740Z,3.67
2023-04-29T13:36:48.164Z,5.75
2023-04-29T13:39:20.485Z,3.08
2023-04-29T13:41:51.211Z,3.13
2023-04-29T13:47:01.854Z,2.33
2023-04-29T13:50:14.801Z,2.33
2023-04-29T13:53:18.113Z,3.00
2023-04-29T13:56:11.629Z,3.83
2023-04-29T14:01:10.173Z,3.25
2023-04-29T14:03:31.402Z,4.88
2023-04-29T14:06:06.828Z,3.75
2023-04-29T14:08:37.128Z,4.03
2023-04-29T14:11:07.508Z,5.15
2023-04-29T14:13:37.821Z,3.35
2023-04-29T14:16:09.642Z,3.83
2023-04-29T14:18:40.042Z,2.85
2023-04-29T14:21:14.125Z,2.90
2023-04-29T14:23:44.416Z,2.70
2023-04-29T14:28:48.638Z,2.63
2023-04-29T14:31:19.127Z,3.28
2023-04-29T14:33:51.325Z,6.15
2023-04-29T14:36:24.386Z,3.50
2023-04-29T14:38:54.793Z,2.78
2023-04-29T14:41:25.469Z,21.88
2023-04-29T14:46:25.895Z,4.05
2023-04-29T14:48:56.403Z,5.88
2023-04-29T14:51:30.038Z,4.68
2023-04-29T14:54:00.366Z,3.80
2023-04-29T14:56:30.750Z,3.83
2023-04-29T14:59:01.122Z,3.45
2023-04-29T15:01:32.420Z,2.65
2023-04-29T15:04:03.909Z,3.83
2023-04-29T15:06:37.745Z,5.03
2023-04-29T15:09:08.177Z,5.28
2023-04-29T15:11:38.549Z,4.53
2023-04-29T15:14:08.941Z,4.85
2023-04-29T15:16:39.405Z,5.57
2023-04-29T15:19:09.797Z,4.40
2023-04-29T15:21:42.808Z,5.20
2023-04-29T15:24:13.084Z,5.60
2023-04-29T15:26:43.427Z,6.20
2023-04-29T15:29:13.858Z,4.97
2023-04-29T15:31:44.621Z,7.85
2023-04-29T15:34:14.979Z,6.85
2023-04-29T15:36:47.922Z,6.55
2023-04-29T15:39:18.260Z,8.15
2023-04-29T15:41:48.597Z,6.45
2023-04-29T15:44:19.058Z,6.70
2023-04-29T15:46:49.491Z,7.40
2023-04-29T15:49:19.826Z,7.22
2023-04-29T15:51:52.787Z,6.68
2023-04-29T15:54:23.356Z,7.10
2023-04-29T15:56:53.863Z,7.15
2023-04-29T15:59:24.181Z,7.78
2023-04-29T16:01:54.558Z,8.13
2023-04-29T16:04:24.927Z,8.45
2023-04-29T16:06:58.785Z,5.75
2023-04-29T16:09:29.081Z,7.90
2023-04-29T16:11:59.525Z,6.60
2023-04-29T16:14:30.228Z,9.20
2023-04-29T16:17:00.718Z,6.57
2023-04-29T16:19:31.020Z,6.07
2023-04-29T16:22:03.992Z,9.10
2023-04-29T16:24:34.323Z,5.45
2023-04-29T16:27:04.674Z,6.88
2023-04-29T16:29:34.988Z,6.05
2023-04-29T16:32:05.318Z,6.43
2023-04-29T16:34:35.811Z,7.35
2023-04-29T16:37:12.724Z,6.32
2023-04-29T16:39:43.891Z,7.03
2023-04-29T16:42:14.355Z,5.93
2023-04-29T16:44:44.637Z,6.45
2023-04-29T16:47:14.973Z,4.78
2023-04-29T16:49:45.292Z,4.75
2023-04-29T16:52:18.232Z,4.88
2023-04-29T16:54:48.508Z,6.00
2023-04-29T16:57:19.486Z,5.40
2023-04-29T16:59:49.779Z,6.53
2023-04-29T17:02:20.154Z,7.03
2023-04-29T17:04:50.518Z,7.15
2023-04-29T17:07:23.590Z,6.32
2023-04-29T17:09:55.158Z,5.50
2023-04-29T17:12:25.742Z,5.25
2023-04-29T17:14:56.302Z,5.05
2023-04-29T17:17:26.732Z,6.85
2023-04-29T17:19:57.353Z,6.25
2023-04-29T17:22:30.433Z,6.30
2023-04-29T17:25:02.276Z,5.32
2023-04-29T17:27:32.625Z,4.75
2023-04-29T17:30:02.939Z,4.43
2023-04-29T17:32:39.220Z,4.85
2023-04-29T17:35:10.653Z,5.47
2023-04-29T17:37:43.622Z,4.78
2023-04-29T17:40:14.223Z,7.03
2023-04-29T17:42:44.687Z,7.68
2023-04-29T17:45:15.793Z,5.80
2023-04-29T17:47:46.170Z,6.90
2023-04-29T17:50:16.470Z,5.70
2023-04-29T17:52:49.404Z,7.45
2023-04-29T17:55:19.840Z,5.43
2023-04-29T17:57:50.180Z,6.28
2023-04-29T18:00:20.494Z,6.28
2023-04-29T18:02:50.930Z,4.57
2023-04-29T18:05:21.300Z,4.97
2023-04-29T18:07:54.339Z,3.88
2023-04-29T18:10:24.670Z,5.75
2023-04-29T18:12:55.133Z,6.32
2023-04-29T18:15:25.484Z,3.88
2023-04-29T18:17:55.851Z,7.78
2023-04-29T18:20:26.487Z,5.97
2023-04-29T18:22:59.454Z,8.63
2023-04-29T18:25:29.919Z,5.78
2023-04-29T18:28:13.712Z,5.40
2023-04-29T18:30:50.398Z,5.30
2023-04-29T18:33:20.936Z,4.60
2023-04-29T18:35:51.299Z,7.70
2023-04-29T18:38:24.253Z,5.28
2023-04-29T18:40:54.586Z,4.43
2023-04-29T18:43:28.778Z,4.45
2023-04-29T18:45:59.222Z,6.80
2023-04-29T18:48:31.172Z,5.07
2023-04-29T18:51:04.506Z,5.32
2023-04-29T18:53:37.495Z,6.07
2023-04-29T18:56:08.559Z,5.10
2023-04-29T18:58:38.979Z,3.95
2023-04-29T19:01:09.268Z,5.82
2023-04-29T19:03:40.503Z,4.72
2023-04-29T19:06:10.875Z,6.15
2023-04-29T19:08:44.087Z,8.13
2023-04-29T19:11:14.373Z,6.28
2023-04-29T19:13:44.765Z,5.63
2023-04-29T19:16:15.257Z,6.47
2023-04-29T19:18:45.697Z,6.88
2023-04-29T19:21:16.429Z,6.75
2023-04-29T19:23:49.506Z,7.43
2023-04-29T19:26:19.828Z,6.03
2023-04-29T19:28:50.136Z,6.07
2023-04-29T19:31:20.447Z,6.18
2023-04-29T19:33:52.697Z,8.90
2023-04-29T19:36:23.053Z,6.10
2023-04-29T19:38:56.028Z,5.72
2023-04-29T19:41:26.388Z,6.97
2023-04-29T19:43:56.832Z,6.30
2023-04-29T19:46:27.148Z,7.57
2023-04-29T19:48:57.606Z,5.93
2023-04-29T19:51:27.957Z,6.38
2023-04-29T19:54:02.532Z,8.73
2023-04-29T19:56:32.836Z,5.28
2023-04-29T19:59:03.228Z,6.55
2023-04-29T20:01:33.934Z,8.02
2023-04-29T20:04:04.402Z,5.75
2023-04-29T20:06:35.304Z,7.20
2023-04-29T20:09:09.731Z,8.23
2023-04-29T20:11:40.069Z,7.53
2023-04-29T20:14:10.433Z,8.55
2023-04-29T20:16:40.809Z,5.57
2023-04-29T20:19:12.152Z,9.07
2023-04-29T20:21:42.501Z,8.15
2023-04-29T20:24:15.651Z,7.85
2023-04-29T20:26:45.999Z,5.00
2023-04-29T20:29:16.598Z,7.78
2023-04-29T20:31:47.074Z,6.53
2023-04-29T20:34:17.897Z,5.88
2023-04-29T20:36:48.588Z,7.50
2023-04-29T20:39:21.857Z,5.63
2023-04-29T20:41:52.188Z,6.05
2023-04-29T20:44:22.771Z,5.88
2023-04-29T20:46:53.323Z,7.00
2023-04-29T20:49:24.812Z,7.05
2023-04-29T20:51:55.142Z,6.10
2023-04-29T20:54:28.302Z,6.60
2023-04-29T20:56:58.607Z,8.23
2023-04-29T20:59:29.035Z,6.43
2023-04-29T21:01:59.335Z,6.32
2023-04-29T21:04:29.713Z,8.60
2023-04-29T21:07:00.097Z,7.63
2023-04-29T21:09:33.275Z,7.47
2023-04-29T21:12:05.547Z,7.05
2023-04-29T21:14:35.971Z,4.78
2023-04-29T21:17:06.335Z,5.38
2023-04-29T21:19:38.688Z,13.15
2023-04-29T21:22:09.078Z,5.85
2023-04-29T21:24:42.039Z,7.75
2023-04-29T21:27:12.313Z,6.78
2023-04-29T21:29:42.663Z,6.38
2023-04-29T21:32:12.953Z,5.30
2023-04-29T21:34:43.448Z,7.35
2023-04-29T21:37:13.780Z,9.13
2023-04-29T21:39:46.703Z,6.38
2023-04-29T21:42:21.429Z,5.50
2023-04-29T21:44:52.268Z,5.63
2023-04-29T21:47:22.777Z,5.38
2023-04-29T21:49:53.451Z,6.90
2023-04-29T21:52:24.025Z,5.40
2023-04-29T21:54:56.988Z,7.03
2023-04-29T21:57:42.769Z,7.22
2023-04-29T22:00:33.233Z,6.35
2023-04-29T22:03:03.942Z,8.20
2023-04-29T22:05:34.300Z,5.28
2023-04-29T22:08:07.585Z,6.22
2023-04-29T22:10:41.755Z,6.15
2023-04-29T22:13:12.150Z,5.03
2023-04-29T22:15:42.957Z,6.55
2023-04-29T22:18:13.311Z,5.07
2023-04-29T22:20:43.760Z,4.05
2023-04-29T22:23:14.086Z,4.70
2023-04-29T22:25:47.143Z,4.03
2023-04-29T22:28:18.032Z,3.80
2023-04-29T22:30:48.486Z,3.03
2023-04-29T22:33:18.800Z,3.60
2023-04-29T22:35:49.129Z,3.72
2023-04-29T22:38:19.501Z,4.47
2023-04-29T22:40:55.415Z,4.95
2023-04-29T22:43:25.878Z,4.03
2023-04-29T22:45:56.422Z,4.53
2023-04-29T22:48:28.116Z,5.07
2023-04-29T22:50:59.604Z,4.60
2023-04-29T22:53:30.157Z,6.47
2023-04-29T22:56:03.557Z,5.03
2023-04-29T22:58:34.100Z,4.05
2023-04-29T23:01:04.653Z,4.25
2023-04-29T23:03:35.008Z,3.83
2023-04-29T23:06:05.523Z,5.05
2023-04-29T23:08:36.041Z,6.07
2023-04-29T23:11:09.158Z,7.93
2023-04-29T23:13:39.456Z,6.53
2023-04-29T23:16:11.090Z,6.68
2023-04-29T23:18:41.506Z,8.02
2023-04-29T23:21:11.946Z,5.38
2023-04-29T23:23:42.369Z,4.70
2023-04-29T23:26:15.340Z,4.88
2023-04-29T23:28:46.011Z,5.05
2023-04-29T23:31:16.525Z,3.60
2023-04-29T23:33:46.967Z,3.67
2023-04-29T23:36:17.298Z,14.88
2023-04-29T23:38:47.570Z,6.43
2023-04-29T23:41:21.056Z,3.28
2023-04-29T23:43:51.336Z,7.00
2023-04-29T23:46:21.759Z,3.63
2023-04-29T23:48:52.096Z,7.95
2023-04-29T23:51:22.416Z,5.55
2023-04-29T23:53:52.936Z,5.43
2023-04-29T23:56:29.213Z,4.88
2023-04-29T23:58:59.662Z,3.17
